createdAt,value
2022-12-11T00:00:08.562Z,43.40
2022-12-11T00:02:35.356Z,43.84
2022-12-11T00:05:02.040Z,43.78
2022-12-11T00:07:28.854Z,43.82
2022-12-11T00:09:55.540Z,43.87
2022-12-11T00:12:22.583Z,44.09
2022-12-11T00:14:49.261Z,44.14
2022-12-11T00:17:15.967Z,44.81
2022-12-11T00:19:42.620Z,44.37
2022-12-11T00:22:09.325Z,44.72
2022-12-11T00:24:36.225Z,44.92
2022-12-11T00:27:02.996Z,44.16
2022-12-11T00:29:29.893Z,44.27
2022-12-11T00:31:56.767Z,44.61
2022-12-11T00:34:23.449Z,44.74
2022-12-11T00:36:50.167Z,45.05
2022-12-11T00:39:16.863Z,44.42
2022-12-11T00:41:43.704Z,44.61
2022-12-11T00:44:10.393Z,44.43
2022-12-11T00:46:37.496Z,44.86
2022-12-11T00:49:04.519Z,45.00
2022-12-11T00:51:31.352Z,44.76
2022-12-11T00:53:58.016Z,44.97
2022-12-11T00:56:25.344Z,44.67
2022-12-11T00:58:52.338Z,45.38
2022-12-11T01:01:24.653Z,44.87
2022-12-11T01:03:53.489Z,45.73
2022-12-11T01:06:23.384Z,45.99
2022-12-11T01:09:10.402Z,45.98
2022-12-11T01:11:37.251Z,45.69
2022-12-11T01:14:04.773Z,45.73
2022-12-11T01:16:31.535Z,45.87
2022-12-11T01:18:58.579Z,45.93
2022-12-11T01:21:25.283Z,46.12
2022-12-11T01:23:52.688Z,46.91
2022-12-11T01:26:19.692Z,46.44
2022-12-11T01:28:49.971Z,46.35
2022-12-11T01:31:18.454Z,46.77
2022-12-11T01:33:45.168Z,47.32
2022-12-11T01:36:20.643Z,46.89
2022-12-11T01:38:48.982Z,47.25
2022-12-11T01:41:17.382Z,47.03
2022-12-11T01:44:07.424Z,47.38
2022-12-11T01:46:37.259Z,47.22
2022-12-11T01:49:07.927Z,46.86
2022-12-11T01:51:41.668Z,46.88
2022-12-11T01:54:13.540Z,47.16
2022-12-11T01:56:43.826Z,47.04
2022-12-11T01:59:11.382Z,46.87
2022-12-11T02:01:45.192Z,47.34
2022-12-11T02:04:15.852Z,47.81
2022-12-11T02:06:48.197Z,47.96
2022-12-11T02:09:21.996Z,48.51
2022-12-11T02:12:19.462Z,48.37
2022-12-11T02:15:19.936Z,48.36
2022-12-11T02:18:28.212Z,48.26
2022-12-11T02:21:03.599Z,48.22
2022-12-11T02:24:08.217Z,48.35
2022-12-11T02:26:34.937Z,47.87
2022-12-11T02:29:07.656Z,48.08
2022-12-11T02:31:46.979Z,48.52
2022-12-11T02:34:20.631Z,48.47
2022-12-11T02:36:54.330Z,48.59
2022-12-11T02:39:23.779Z,48.43
2022-12-11T02:41:51.566Z,48.82
2022-12-11T02:44:24.737Z,49.09
2022-12-11T02:46:52.615Z,48.79
2022-12-11T02:49:21.648Z,48.77
2022-12-11T02:51:49.558Z,48.62
2022-12-11T02:54:32.133Z,49.07
2022-12-11T02:57:21.756Z,49.61
2022-12-11T02:59:48.548Z,50.11
2022-12-11T03:02:17.353Z,49.18
2022-12-11T03:04:44.939Z,49.13
2022-12-11T03:07:31.729Z,49.13
2022-12-11T03:09:58.720Z,49.19
2022-12-11T03:12:32.623Z,48.62
2022-12-11T03:15:01.904Z,48.88
2022-12-11T03:17:36.346Z,48.77
2022-12-11T03:20:44.082Z,48.84
2022-12-11T03:23:21.238Z,48.81
2022-12-11T03:25:50.966Z,49.04
2022-12-11T03:28:24.426Z,48.80
2022-12-11T03:30:53.655Z,48.80
2022-12-11T03:33:27.777Z,49.29
2022-12-11T03:36:01.176Z,48.79
2022-12-11T03:38:42.759Z,49.25
2022-12-11T03:41:12.539Z,49.45
2022-12-11T03:43:41.049Z,48.90
2022-12-11T03:46:10.807Z,48.97
2022-12-11T03:48:41.840Z,49.06
2022-12-11T03:51:09.392Z,49.05
2022-12-11T03:53:37.492Z,49.18
2022-12-11T03:56:06.406Z,49.32
2022-12-11T03:58:33.358Z,49.53
2022-12-11T04:01:00.039Z,49.65
2022-12-11T04:03:26.791Z,49.96
2022-12-11T04:05:55.219Z,50.19
2022-12-11T04:08:23.353Z,49.50
2022-12-11T04:11:11.216Z,49.67
2022-12-11T04:13:39.683Z,50.08
2022-12-11T04:16:07.340Z,49.76
2022-12-11T04:18:53.103Z,50.08
2022-12-11T04:21:39.788Z,50.02
2022-12-11T04:24:16.797Z,50.05
2022-12-11T04:26:45.292Z,50.18
2022-12-11T04:29:12.348Z,50.08
2022-12-11T04:31:39.138Z,49.97
2022-12-11T04:34:06.282Z,50.08
2022-12-11T04:36:33.017Z,49.75
2022-12-11T04:38:59.746Z,49.59
2022-12-11T04:41:26.500Z,49.65
2022-12-11T04:43:53.196Z,49.96
2022-12-11T04:46:22.585Z,49.76
2022-12-11T04:48:55.355Z,50.05
2022-12-11T04:51:23.747Z,49.71
2022-12-11T04:53:50.430Z,50.19
2022-12-11T04:56:17.285Z,49.84
2022-12-11T04:58:44.967Z,50.12
2022-12-11T05:01:15.281Z,50.03
2022-12-11T05:03:42.657Z,50.42
2022-12-11T05:06:10.015Z,50.15
2022-12-11T05:08:38.804Z,50.00
2022-12-11T05:11:08.109Z,50.22
2022-12-11T05:13:34.859Z,49.97
2022-12-11T05:16:08.180Z,49.78
2022-12-11T05:18:35.172Z,49.83
2022-12-11T05:21:04.802Z,50.15
2022-12-11T05:23:31.743Z,50.02
2022-12-11T05:26:00.957Z,50.26
2022-12-11T05:28:29.813Z,49.92
2022-12-11T05:31:01.709Z,49.94
2022-12-11T05:33:29.280Z,49.70
2022-12-11T05:35:56.712Z,49.86
2022-12-11T05:38:23.412Z,49.69
2022-12-11T05:41:07.304Z,49.63
2022-12-11T05:43:36.831Z,49.68
2022-12-11T05:46:12.292Z,50.22
2022-12-11T05:48:40.022Z,50.30
2022-12-11T05:51:08.398Z,50.17
2022-12-11T05:53:39.311Z,50.52
2022-12-11T05:56:11.900Z,50.97
2022-12-11T05:58:39.737Z,51.25
2022-12-11T06:01:15.057Z,50.81
2022-12-11T06:03:41.837Z,51.06
2022-12-11T06:06:08.895Z,50.96
2022-12-11T06:08:35.740Z,50.90
2022-12-11T06:11:03.174Z,51.39
2022-12-11T06:13:30.133Z,50.76
2022-12-11T06:16:02.133Z,50.97
2022-12-11T06:18:28.805Z,50.84
2022-12-11T06:20:55.712Z,50.73
2022-12-11T06:23:22.708Z,51.38
2022-12-11T06:25:49.431Z,51.36
2022-12-11T06:28:16.223Z,51.01
2022-12-11T06:30:42.972Z,51.38
2022-12-11T06:33:09.772Z,51.40
2022-12-11T06:35:42.105Z,51.10
2022-12-11T06:38:10.639Z,50.97
2022-12-11T06:40:37.532Z,50.97
2022-12-11T06:43:04.234Z,50.86
2022-12-11T06:45:30.975Z,50.63
2022-12-11T06:47:58.656Z,50.69
2022-12-11T06:50:25.436Z,50.67
2022-12-11T06:52:52.369Z,50.96
2022-12-11T06:55:18.999Z,50.95
2022-12-11T06:57:45.668Z,50.69
2022-12-11T07:00:13.065Z,51.17
2022-12-11T07:02:39.831Z,51.06
2022-12-11T07:05:06.997Z,50.69
2022-12-11T07:07:34.486Z,50.58
2022-12-11T07:10:07.542Z,50.69
2022-12-11T07:12:35.280Z,50.76
2022-12-11T07:15:02.077Z,51.14
2022-12-11T07:17:29.839Z,50.86
2022-12-11T07:19:56.584Z,50.87
2022-12-11T07:22:23.361Z,50.73
2022-12-11T07:24:50.102Z,50.71
2022-12-11T07:27:16.788Z,50.80
2022-12-11T07:29:43.447Z,51.57
2022-12-11T07:32:10.753Z,52.42
2022-12-11T07:34:37.737Z,51.35
2022-12-11T07:37:04.593Z,51.02
2022-12-11T07:39:31.277Z,50.66
2022-12-11T07:41:58.057Z,51.00
2022-12-11T07:44:24.797Z,50.98
2022-12-11T07:46:51.544Z,50.79
2022-12-11T07:49:18.180Z,50.76
2022-12-11T07:51:44.889Z,51.20
2022-12-11T07:54:16.466Z,51.12
2022-12-11T07:56:51.181Z,52.49
2022-12-11T07:59:21.059Z,51.38
2022-12-11T08:01:47.892Z,51.59
2022-12-11T08:04:15.825Z,51.31
2022-12-11T08:06:43.643Z,52.14
2022-12-11T08:09:20.401Z,51.28
2022-12-11T08:11:51.125Z,51.76
2022-12-11T08:14:18.507Z,51.07
2022-12-11T08:16:45.217Z,51.50
2022-12-11T08:19:12.698Z,51.26
2022-12-11T08:21:40.811Z,52.38
2022-12-11T08:24:09.022Z,50.96
2022-12-11T08:26:36.073Z,50.56
2022-12-11T08:29:03.766Z,51.35
2022-12-11T08:31:33.200Z,51.02
2022-12-11T08:34:00.279Z,54.21
2022-12-11T08:36:27.046Z,52.36
2022-12-11T08:38:55.417Z,52.69
2022-12-11T08:41:28.450Z,51.66
2022-12-11T08:43:55.906Z,52.13
2022-12-11T08:46:24.659Z,51.96
2022-12-11T08:48:51.834Z,52.46
2022-12-11T08:51:21.438Z,52.43
2022-12-11T08:53:48.455Z,51.36
2022-12-11T08:56:18.203Z,51.20
2022-12-11T08:58:46.605Z,51.39
2022-12-11T09:01:16.563Z,51.79
2022-12-11T09:03:43.746Z,51.60
2022-12-11T09:06:13.207Z,51.23
2022-12-11T09:08:40.871Z,51.81
2022-12-11T09:11:23.330Z,51.56
2022-12-11T09:13:50.603Z,52.08
2022-12-11T09:16:19.329Z,52.34
2022-12-11T09:18:48.027Z,52.41
2022-12-11T09:21:18.294Z,52.65
2022-12-11T09:23:45.048Z,52.53
2022-12-11T09:26:15.026Z,52.57
2022-12-11T09:28:46.177Z,52.43
2022-12-11T09:31:15.459Z,52.47
2022-12-11T09:33:42.800Z,52.73
2022-12-11T09:36:09.860Z,52.81
2022-12-11T09:38:36.616Z,53.29
2022-12-11T09:41:17.442Z,52.85
2022-12-11T09:43:48.926Z,52.84
2022-12-11T09:46:18.418Z,53.19
2022-12-11T09:48:47.548Z,52.95
2022-12-11T09:51:40.826Z,52.50
2022-12-11T09:54:07.779Z,52.96
2022-12-11T09:56:39.356Z,53.33
2022-12-11T09:59:08.677Z,52.66
2022-12-11T10:02:10.928Z,53.17
2022-12-11T10:05:13.892Z,53.92
2022-12-11T10:08:05.573Z,53.34
2022-12-11T10:10:56.117Z,53.38
2022-12-11T10:13:41.267Z,53.40
2022-12-11T10:17:00.277Z,53.33
2022-12-11T10:19:30.599Z,54.15
2022-12-11T10:21:59.336Z,53.37
2022-12-11T10:27:38.280Z,52.71
2022-12-11T10:30:17.009Z,53.42
2022-12-11T10:33:00.825Z,52.81
2022-12-11T10:35:36.685Z,52.21
2022-12-11T10:38:21.203Z,51.59
2022-12-11T10:40:53.440Z,51.52
2022-12-11T10:43:20.250Z,51.58
2022-12-11T10:45:51.707Z,51.58
2022-12-11T10:48:20.847Z,51.51
2022-12-11T10:50:57.676Z,51.42
2022-12-11T10:53:25.894Z,50.81
2022-12-11T10:55:53.405Z,51.27
2022-12-11T10:58:24.213Z,51.45
2022-12-11T11:01:07.599Z,51.27
2022-12-11T11:03:36.623Z,52.85
2022-12-11T11:06:15.875Z,51.14
2022-12-11T11:08:46.155Z,52.05
2022-12-11T11:11:24.309Z,51.38
2022-12-11T11:13:51.679Z,52.39
2022-12-11T11:16:21.748Z,50.72
2022-12-11T11:18:54.640Z,50.93
2022-12-11T11:21:26.519Z,50.89
2022-12-11T11:23:54.283Z,50.74
2022-12-11T11:26:38.262Z,50.54
2022-12-11T11:29:25.727Z,50.90
2022-12-11T11:31:52.470Z,51.20
2022-12-11T11:34:23.475Z,52.11
2022-12-11T11:36:57.899Z,51.28
2022-12-11T11:39:35.812Z,50.88
2022-12-11T11:42:14.997Z,51.74
2022-12-11T11:44:44.620Z,51.53
2022-12-11T11:47:27.783Z,51.26
2022-12-11T11:50:20.723Z,50.92
2022-12-11T11:53:02.910Z,51.72
2022-12-11T11:55:51.993Z,51.44
2022-12-11T11:58:24.261Z,51.30
2022-12-11T12:00:54.637Z,51.13
2022-12-11T12:03:23.678Z,51.39
2022-12-11T12:06:16.753Z,51.44
2022-12-11T12:09:05.514Z,51.54
2022-12-11T12:11:39.964Z,51.91
2022-12-11T12:14:50.701Z,51.75
2022-12-11T12:17:31.395Z,52.29
2022-12-11T12:19:58.184Z,51.50
2022-12-11T12:22:36.773Z,51.47
2022-12-11T12:25:24.531Z,52.01
2022-12-11T12:27:53.940Z,51.86
2022-12-11T12:30:24.097Z,52.48
2022-12-11T12:33:26.499Z,51.70
2022-12-11T12:36:12.174Z,51.54
2022-12-11T12:38:52.894Z,52.05
2022-12-11T12:41:49.883Z,51.66
2022-12-11T12:44:19.132Z,52.56
2022-12-11T12:46:51.807Z,52.04
2022-12-11T12:49:43.077Z,51.84
2022-12-11T12:52:26.254Z,52.07
2022-12-11T12:55:14.729Z,53.11
2022-12-11T12:57:55.204Z,51.94
2022-12-11T13:00:38.900Z,52.38
2022-12-11T13:03:16.552Z,52.16
2022-12-11T13:05:58.272Z,52.45
2022-12-11T13:08:30.731Z,52.27
2022-12-11T13:11:06.294Z,52.52
2022-12-11T13:13:43.083Z,53.40
2022-12-11T13:16:40.311Z,52.91
2022-12-11T13:19:26.362Z,53.38
2022-12-11T13:22:03.856Z,54.41
2022-12-11T13:24:34.175Z,53.88
2022-12-11T13:27:22.531Z,53.51
2022-12-11T13:29:49.360Z,53.59
2022-12-11T13:32:18.811Z,53.82
2022-12-11T13:34:53.654Z,53.64
2022-12-11T13:37:52.451Z,53.30
2022-12-11T13:40:22.857Z,53.63
2022-12-11T13:42:49.504Z,53.79
2022-12-11T13:45:23.501Z,53.59
2022-12-11T13:47:50.477Z,53.72
2022-12-11T13:50:43.813Z,53.55
2022-12-11T13:53:16.065Z,53.40
2022-12-11T13:55:43.615Z,53.17
2022-12-11T13:58:21.210Z,53.41
2022-12-11T14:01:08.472Z,53.42
2022-12-11T14:03:35.838Z,53.41
2022-12-11T14:06:03.749Z,53.98
2022-12-11T14:08:36.223Z,54.03
2022-12-11T14:11:03.345Z,54.41
2022-12-11T14:13:39.714Z,54.22
2022-12-11T14:16:07.418Z,53.92
2022-12-11T14:18:36.769Z,54.30
2022-12-11T14:21:06.195Z,53.93
2022-12-11T14:23:37.464Z,54.55
2022-12-11T14:26:19.675Z,54.39
2022-12-11T14:28:46.787Z,56.08
2022-12-11T14:31:18.204Z,56.70
2022-12-11T14:33:49.995Z,57.61
2022-12-11T14:36:18.831Z,58.33
2022-12-11T14:38:52.496Z,59.08
2022-12-11T14:41:29.195Z,58.45
2022-12-11T14:44:00.624Z,58.31
2022-12-11T14:46:40.240Z,58.50
2022-12-11T14:49:24.628Z,58.33
2022-12-11T14:51:55.169Z,58.43
2022-12-11T14:54:26.370Z,58.00
2022-12-11T14:56:54.451Z,57.73
2022-12-11T14:59:30.133Z,58.14
2022-12-11T15:02:20.955Z,57.95
2022-12-11T15:05:01.916Z,57.75
2022-12-11T15:07:29.230Z,57.73
2022-12-11T15:09:55.897Z,57.90
2022-12-11T15:12:22.689Z,57.89
2022-12-11T15:14:56.761Z,57.91
2022-12-11T15:17:25.492Z,58.14
2022-12-11T15:19:55.899Z,58.41
2022-12-11T15:22:26.307Z,58.40
2022-12-11T15:24:54.647Z,59.30
2022-12-11T15:27:37.440Z,60.00
2022-12-11T15:30:28.499Z,60.65
2022-12-11T15:33:03.798Z,61.09
2022-12-11T15:35:30.655Z,61.71
2022-12-11T15:37:58.508Z,62.31
2022-12-11T15:40:25.827Z,62.38
2022-12-11T15:42:54.779Z,62.33
2022-12-11T15:45:24.838Z,62.79
2022-12-11T15:47:52.590Z,62.70
2022-12-11T15:50:25.459Z,62.92
2022-12-11T15:52:54.568Z,62.58
2022-12-11T15:55:22.516Z,62.90
2022-12-11T15:57:59.517Z,63.27
2022-12-11T16:00:28.223Z,63.27
2022-12-11T16:02:56.992Z,63.20
2022-12-11T16:05:24.142Z,63.44
2022-12-11T16:07:59.531Z,63.33
2022-12-11T16:10:27.101Z,63.66
2022-12-11T16:12:56.632Z,63.46
2022-12-11T16:15:24.224Z,63.63
2022-12-11T16:17:59.878Z,63.56
2022-12-11T16:20:26.632Z,63.66
2022-12-11T16:22:53.248Z,63.54
2022-12-11T16:25:19.913Z,63.33
2022-12-11T16:27:46.582Z,63.52
2022-12-11T16:30:13.953Z,63.28
2022-12-11T16:32:40.699Z,62.78
2022-12-11T16:35:07.550Z,62.93
2022-12-11T16:37:34.186Z,62.89
2022-12-11T16:40:00.915Z,63.07
2022-12-11T16:42:27.648Z,62.80
2022-12-11T16:44:54.362Z,62.73
2022-12-11T16:47:21.052Z,62.70
2022-12-11T16:49:47.813Z,62.28
2022-12-11T16:52:18.965Z,62.37
2022-12-11T16:54:48.634Z,62.50
2022-12-11T16:57:16.506Z,62.36
2022-12-11T16:59:45.955Z,62.32
2022-12-11T17:02:12.696Z,62.48
2022-12-11T17:04:40.033Z,62.95
2022-12-11T17:07:06.776Z,62.50
2022-12-11T17:09:33.520Z,62.87
2022-12-11T17:12:00.320Z,62.97
2022-12-11T17:14:27.490Z,62.92
2022-12-11T17:16:54.956Z,63.05
2022-12-11T17:19:21.633Z,63.09
2022-12-11T17:21:51.548Z,62.96
2022-12-11T17:24:18.757Z,62.97
2022-12-11T17:26:46.069Z,63.31
2022-12-11T17:29:13.334Z,63.36
2022-12-11T17:31:40.554Z,63.13
2022-12-11T17:34:07.522Z,63.29
2022-12-11T17:36:34.692Z,62.67
2022-12-11T17:39:01.638Z,62.34
2022-12-11T17:41:28.375Z,61.12
2022-12-11T17:43:55.713Z,59.56
2022-12-11T17:46:23.022Z,59.22
2022-12-11T17:48:50.065Z,58.65
2022-12-11T17:51:22.044Z,58.36
2022-12-11T17:53:48.699Z,58.24
2022-12-11T17:56:16.383Z,58.36
2022-12-11T17:58:43.071Z,57.99
2022-12-11T18:01:11.034Z,57.62
2022-12-11T18:03:38.152Z,57.64
2022-12-11T18:06:08.616Z,57.32
2022-12-11T18:08:35.603Z,57.07
2022-12-11T18:11:18.522Z,57.29
2022-12-11T18:13:49.134Z,57.37
2022-12-11T18:16:21.816Z,57.44
2022-12-11T18:18:50.360Z,57.32
2022-12-11T18:21:20.199Z,56.99
2022-12-11T18:23:47.459Z,57.54
2022-12-11T18:26:14.716Z,57.40
2022-12-11T18:28:42.132Z,56.91
2022-12-11T18:31:09.775Z,57.51
2022-12-11T18:33:38.808Z,57.03
2022-12-11T18:36:06.560Z,57.01
2022-12-11T18:38:33.995Z,57.29
2022-12-11T18:41:06.153Z,57.43
2022-12-11T18:43:32.863Z,57.35
2022-12-11T18:46:15.055Z,57.27
2022-12-11T18:48:43.476Z,57.63
2022-12-11T18:51:22.626Z,57.77
2022-12-11T18:53:49.367Z,57.61
2022-12-11T18:56:18.734Z,58.04
2022-12-11T18:58:46.726Z,57.16
2022-12-11T19:01:19.944Z,57.15
2022-12-11T19:03:47.868Z,57.14
2022-12-11T19:06:17.997Z,57.35
2022-12-11T19:08:44.850Z,57.61
2022-12-11T19:11:19.798Z,58.23
2022-12-11T19:13:47.004Z,58.08
2022-12-11T19:16:22.887Z,58.56
2022-12-11T19:18:50.552Z,58.94
2022-12-11T19:21:18.564Z,59.54
2022-12-11T19:23:48.558Z,59.48
2022-12-11T19:26:19.828Z,59.77
2022-12-11T19:28:48.043Z,59.38
2022-12-11T19:31:18.585Z,58.81
2022-12-11T19:33:46.858Z,59.03
2022-12-11T19:36:16.730Z,58.64
2022-12-11T19:38:45.675Z,58.97
2022-12-11T19:41:18.601Z,59.50
2022-12-11T19:43:45.502Z,63.50
2022-12-11T19:46:13.448Z,62.70
2022-12-11T19:48:41.772Z,62.98
2022-12-11T19:51:09.791Z,61.29
2022-12-11T19:53:37.505Z,62.16
2022-12-11T19:56:04.831Z,62.66
2022-12-11T19:58:32.386Z,62.75
2022-12-11T20:00:59.558Z,62.87
2022-12-11T20:03:27.085Z,62.24
2022-12-11T20:06:06.649Z,63.24
2022-12-11T20:08:49.486Z,65.26
2022-12-11T20:11:19.222Z,62.81
2022-12-11T20:13:50.222Z,61.11
2022-12-11T20:16:33.334Z,60.78
2022-12-11T20:19:08.349Z,60.34
2022-12-11T20:21:35.049Z,60.53
2022-12-11T20:24:01.827Z,60.19
2022-12-11T20:26:29.884Z,59.54
2022-12-11T20:28:57.864Z,59.52
2022-12-11T20:31:26.396Z,59.95
2022-12-11T20:33:55.960Z,59.70
2022-12-11T20:36:24.783Z,59.94
2022-12-11T20:38:52.370Z,60.22
2022-12-11T20:41:21.943Z,62.98
2022-12-11T20:43:49.295Z,64.10
2022-12-11T20:46:17.466Z,65.42
2022-12-11T20:48:45.220Z,65.63
2022-12-11T20:51:13.968Z,65.32
2022-12-11T20:53:42.594Z,66.21
2022-12-11T20:56:15.285Z,67.83
2022-12-11T20:58:42.235Z,68.26
2022-12-11T21:01:14.948Z,67.12
2022-12-11T21:03:48.547Z,64.64
2022-12-11T21:06:25.940Z,62.13
2022-12-11T21:08:54.065Z,60.78
2022-12-11T21:11:21.196Z,60.09
2022-12-11T21:13:50.273Z,59.72
2022-12-11T21:16:18.452Z,60.20
2022-12-11T21:18:46.657Z,59.87
2022-12-11T21:21:13.823Z,59.95
2022-12-11T21:23:40.719Z,59.94
2022-12-11T21:26:07.387Z,60.22
2022-12-11T21:28:35.699Z,59.87
2022-12-11T21:31:06.197Z,60.00
2022-12-11T21:33:33.352Z,60.28
2022-12-11T21:36:00.787Z,60.29
2022-12-11T21:38:29.799Z,60.46
2022-12-11T21:40:57.282Z,59.99
2022-12-11T21:43:24.909Z,60.01
2022-12-11T21:46:00.916Z,60.07
2022-12-11T21:48:28.238Z,60.23
2022-12-11T21:50:54.950Z,60.30
2022-12-11T21:53:21.602Z,60.36
2022-12-11T21:55:48.272Z,60.56
2022-12-11T21:58:15.699Z,60.76
2022-12-11T22:00:42.449Z,60.46
2022-12-11T22:03:09.227Z,60.85
2022-12-11T22:05:35.941Z,60.88
2022-12-11T22:08:02.765Z,60.83
2022-12-11T22:10:29.622Z,60.58
2022-12-11T22:12:56.362Z,60.45
2022-12-11T22:15:23.165Z,60.32
2022-12-11T22:17:52.086Z,59.95
2022-12-11T22:20:18.773Z,60.23
2022-12-11T22:22:46.762Z,60.29
2022-12-11T22:25:13.746Z,60.52
2022-12-11T22:27:40.746Z,60.52
2022-12-11T22:30:07.994Z,60.36
2022-12-11T22:32:34.861Z,60.27
2022-12-11T22:35:11.047Z,60.66
2022-12-11T22:37:38.046Z,61.12
2022-12-11T22:40:05.801Z,60.92
2022-12-11T22:42:32.501Z,60.84
2022-12-11T22:44:59.154Z,61.02
2022-12-11T22:47:25.987Z,61.12
2022-12-11T22:49:52.738Z,60.97
2022-12-11T22:52:19.478Z,60.89
2022-12-11T22:54:46.276Z,61.29
2022-12-11T22:57:14.375Z,61.13
2022-12-11T22:59:41.463Z,60.90
2022-12-11T23:02:08.240Z,61.09
2022-12-11T23:04:35.026Z,60.72
2022-12-11T23:07:01.923Z,60.41
2022-12-11T23:09:28.681Z,60.63
2022-12-11T23:11:55.856Z,60.28
2022-12-11T23:14:22.560Z,60.42
2022-12-11T23:16:49.292Z,60.44
2022-12-11T23:19:19.631Z,60.10
2022-12-11T23:21:50.475Z,60.06
2022-12-11T23:24:17.212Z,60.28
2022-12-11T23:26:44.193Z,60.86
2022-12-11T23:29:10.833Z,60.31
2022-12-11T23:31:37.670Z,60.24
2022-12-11T23:34:04.339Z,59.96
2022-12-11T23:36:31.015Z,59.69
2022-12-11T23:38:57.700Z,59.99
2022-12-11T23:41:24.511Z,59.90
2022-12-11T23:43:51.215Z,60.26
2022-12-11T23:46:21.684Z,59.62
2022-12-11T23:48:49.035Z,59.29
2022-12-11T23:51:17.776Z,59.31
2022-12-11T23:53:44.818Z,59.39
2022-12-11T23:56:18.160Z,59.40
2022-12-11T23:58:45.222Z,59.30
